createdAt,value
2023-01-23T00:02:38.298Z,61.95
2023-01-23T00:05:27.271Z,62.26
2023-01-23T00:08:09.432Z,62.33
2023-01-23T00:10:58.183Z,62.29
2023-01-23T00:13:47.167Z,62.64
2023-01-23T00:16:38.242Z,62.14
2023-01-23T00:19:27.524Z,62.32
2023-01-23T00:22:10.599Z,62.56
2023-01-23T00:24:59.526Z,62.68
2023-01-23T00:27:41.273Z,62.49
2023-01-23T00:30:30.519Z,62.40
2023-01-23T00:33:12.158Z,62.37
2023-01-23T00:36:03.139Z,62.17
2023-01-23T00:38:53.112Z,63.06
2023-01-23T00:41:42.529Z,62.87
2023-01-23T00:44:25.216Z,63.47
2023-01-23T00:47:07.878Z,63.25
2023-01-23T00:49:57.106Z,63.07
2023-01-23T00:52:46.269Z,62.68
2023-01-23T00:55:28.501Z,63.01
2023-01-23T00:58:17.058Z,63.66
2023-01-23T01:01:02.541Z,62.63
2023-01-23T01:03:53.214Z,62.61
2023-01-23T01:06:35.575Z,63.36
2023-01-23T01:09:24.113Z,62.39
2023-01-23T01:12:06.606Z,63.66
2023-01-23T01:14:55.163Z,63.52
2023-01-23T01:17:37.577Z,63.58
2023-01-23T01:20:26.227Z,64.10
2023-01-23T01:23:08.550Z,64.19
2023-01-23T01:25:57.227Z,63.79
2023-01-23T01:28:40.548Z,64.22
2023-01-23T01:31:29.277Z,64.43
2023-01-23T01:34:18.233Z,64.10
2023-01-23T01:37:07.492Z,64.66
2023-01-23T01:39:49.225Z,64.19
2023-01-23T01:42:39.159Z,65.31
2023-01-23T01:46:05.236Z,64.81
2023-01-23T01:49:06.222Z,65.14
2023-01-23T01:52:26.265Z,65.08
2023-01-23T01:55:23.121Z,64.68
2023-01-23T01:58:12.197Z,64.54
2023-01-23T02:01:03.285Z,64.40
2023-01-23T02:03:47.242Z,64.75
2023-01-23T02:06:36.140Z,64.67
2023-01-23T02:09:32.192Z,64.03
2023-01-23T02:12:15.445Z,64.34
2023-01-23T02:15:04.524Z,64.72
2023-01-23T02:17:46.476Z,63.48
2023-01-23T02:20:36.200Z,63.99
2023-01-23T02:24:02.764Z,63.55
2023-01-23T02:26:53.218Z,63.65
2023-01-23T02:29:49.398Z,63.87
2023-01-23T02:32:40.223Z,63.65
2023-01-23T02:35:37.187Z,63.80
2023-01-23T02:38:31.090Z,63.34
2023-01-23T02:41:24.154Z,63.55
2023-01-23T02:44:36.147Z,62.97
2023-01-23T02:47:28.158Z,63.33
2023-01-23T02:50:17.661Z,62.72
2023-01-23T02:53:02.205Z,62.64
2023-01-23T02:56:08.004Z,62.49
2023-01-23T02:59:16.273Z,62.26
2023-01-23T03:01:58.769Z,62.61
2023-01-23T03:04:47.086Z,62.81
2023-01-23T03:07:29.447Z,62.20
2023-01-23T03:10:21.426Z,62.41
2023-01-23T03:13:12.259Z,62.08
2023-01-23T03:16:01.112Z,61.78
2023-01-23T03:18:54.028Z,61.83
2023-01-23T03:21:45.245Z,60.96
2023-01-23T03:24:29.190Z,61.04
2023-01-23T03:27:18.112Z,60.64
2023-01-23T03:30:29.205Z,59.99
2023-01-23T03:33:11.366Z,60.06
2023-01-23T03:36:00.218Z,60.17
2023-01-23T03:39:12.159Z,59.49
2023-01-23T03:42:01.252Z,60.02
2023-01-23T03:44:44.189Z,59.38
2023-01-23T03:47:34.187Z,59.00
2023-01-23T03:50:23.118Z,58.54
2023-01-23T03:53:13.188Z,58.97
2023-01-23T03:56:10.194Z,59.77
2023-01-23T03:58:52.454Z,60.94
2023-01-23T04:01:41.094Z,58.44
2023-01-23T04:04:30.163Z,58.67
2023-01-23T04:07:15.474Z,59.64
2023-01-23T04:10:05.151Z,57.47
2023-01-23T04:12:52.610Z,57.49
2023-01-23T04:15:42.237Z,57.17
2023-01-23T04:18:24.517Z,57.93
2023-01-23T04:21:14.107Z,58.64
2023-01-23T04:23:56.446Z,57.88
2023-01-23T04:26:46.107Z,56.90
2023-01-23T04:29:29.607Z,57.76
2023-01-23T04:32:18.101Z,57.44
2023-01-23T04:35:00.477Z,58.14
2023-01-23T04:37:52.235Z,56.58
2023-01-23T04:40:41.094Z,55.51
2023-01-23T04:43:31.149Z,55.58
2023-01-23T04:46:24.296Z,54.96
2023-01-23T04:49:15.375Z,54.88
2023-01-23T04:52:05.235Z,54.98
2023-01-23T04:55:05.134Z,55.34
2023-01-23T04:57:54.904Z,52.81
2023-01-23T05:00:38.535Z,52.64
2023-01-23T05:03:28.279Z,53.52
2023-01-23T05:06:10.523Z,51.43
2023-01-23T05:08:59.142Z,51.00
2023-01-23T05:11:52.518Z,49.69
2023-01-23T05:14:46.161Z,49.55
2023-01-23T05:17:35.131Z,48.76
2023-01-23T05:20:18.975Z,49.71
2023-01-23T05:23:05.265Z,48.80
2023-01-23T05:25:56.499Z,46.88
2023-01-23T05:28:46.259Z,48.76
2023-01-23T05:31:36.273Z,48.21
2023-01-23T05:34:48.177Z,49.06
2023-01-23T05:37:34.479Z,47.27
2023-01-23T05:40:23.144Z,45.40
2023-01-23T05:43:31.475Z,46.26
2023-01-23T05:46:38.147Z,45.52
2023-01-23T05:49:28.168Z,44.67
2023-01-23T05:52:17.033Z,45.62
2023-01-23T05:55:06.182Z,44.34
2023-01-23T05:57:55.491Z,43.56
2023-01-23T06:00:54.140Z,43.04
2023-01-23T06:03:59.418Z,42.33
2023-01-23T06:07:00.143Z,42.27
2023-01-23T06:09:49.213Z,42.68
2023-01-23T06:12:31.477Z,41.16
2023-01-23T06:15:20.061Z,41.67
2023-01-23T06:18:04.487Z,41.43
2023-01-23T06:20:47.095Z,42.10
2023-01-23T06:23:36.181Z,41.79
2023-01-23T06:26:18.655Z,43.19
2023-01-23T06:29:08.257Z,40.73
2023-01-23T06:31:50.725Z,41.32
2023-01-23T06:34:39.326Z,42.04
2023-01-23T06:37:21.419Z,41.03
2023-01-23T06:40:10.140Z,43.71
2023-01-23T06:43:05.571Z,41.58
2023-01-23T06:45:55.196Z,40.68
2023-01-23T06:48:38.543Z,42.87
2023-01-23T06:51:29.343Z,42.49
2023-01-23T06:54:14.447Z,42.66
2023-01-23T06:57:10.166Z,43.81
2023-01-23T07:00:02.528Z,40.44
2023-01-23T07:02:47.084Z,43.32
2023-01-23T07:05:40.074Z,42.13
2023-01-23T07:08:29.221Z,42.36
2023-01-23T07:11:12.807Z,40.56
2023-01-23T07:14:01.227Z,41.75
2023-01-23T07:16:45.377Z,41.54
2023-01-23T07:19:34.226Z,41.33
2023-01-23T07:22:22.057Z,40.55
2023-01-23T07:25:11.160Z,42.39
2023-01-23T07:27:53.372Z,42.33
2023-01-23T07:30:42.189Z,41.86
2023-01-23T07:33:31.126Z,40.76
2023-01-23T07:36:24.125Z,41.34
2023-01-23T07:39:13.121Z,41.40
2023-01-23T07:41:55.396Z,39.86
2023-01-23T07:44:44.102Z,41.46
2023-01-23T07:47:33.117Z,39.44
2023-01-23T07:50:23.501Z,41.14
2023-01-23T07:53:05.177Z,39.80
2023-01-23T07:56:00.017Z,40.36
2023-01-23T07:58:49.257Z,41.46
2023-01-23T08:01:31.473Z,40.49
2023-01-23T08:04:20.179Z,42.01
2023-01-23T08:07:09.168Z,39.62
2023-01-23T08:09:58.636Z,40.73
2023-01-23T08:12:41.080Z,40.00
2023-01-23T08:15:30.121Z,40.93
2023-01-23T08:18:19.119Z,42.00
2023-01-23T08:21:11.298Z,41.84
2023-01-23T08:23:53.381Z,41.16
2023-01-23T08:26:42.226Z,41.51
2023-01-23T08:29:24.593Z,41.59
2023-01-23T08:32:13.232Z,40.88
2023-01-23T08:34:56.416Z,43.30
2023-01-23T08:37:45.137Z,40.69
2023-01-23T08:40:34.083Z,40.62
2023-01-23T08:43:25.526Z,40.86
2023-01-23T08:46:08.193Z,40.80
2023-01-23T08:48:57.452Z,41.93
2023-01-23T08:51:40.208Z,41.22
2023-01-23T08:54:28.482Z,42.72
2023-01-23T08:57:17.074Z,42.98
2023-01-23T08:59:59.436Z,43.27
2023-01-23T09:02:48.232Z,43.42
2023-01-23T09:05:30.555Z,41.81
2023-01-23T09:08:19.137Z,43.38
2023-01-23T09:11:01.515Z,44.38
2023-01-23T09:13:51.738Z,44.71
2023-01-23T09:16:35.551Z,43.86
2023-01-23T09:19:24.252Z,43.14
2023-01-23T09:22:06.588Z,43.37
2023-01-23T09:24:55.204Z,42.72
2023-01-23T09:27:37.500Z,43.40
2023-01-23T09:30:26.328Z,42.87
2023-01-23T09:33:08.435Z,43.34
2023-01-23T09:36:00.217Z,42.40
2023-01-23T09:38:42.485Z,42.74
2023-01-23T09:41:36.237Z,42.50
2023-01-23T09:44:29.472Z,42.44
2023-01-23T09:47:27.188Z,41.98
2023-01-23T09:50:15.509Z,40.02
2023-01-23T09:53:22.035Z,40.97
2023-01-23T09:56:18.199Z,42.97
2023-01-23T09:59:18.480Z,42.27
2023-01-23T10:02:01.233Z,41.81
2023-01-23T10:04:49.416Z,42.88
2023-01-23T10:07:52.152Z,43.08
2023-01-23T10:10:58.457Z,44.15
2023-01-23T10:13:53.199Z,44.55
2023-01-23T10:16:52.622Z,45.79
2023-01-23T10:19:43.109Z,47.38
2023-01-23T10:22:44.419Z,47.16
2023-01-23T10:25:43.125Z,47.95
2023-01-23T10:28:43.213Z,47.89
2023-01-23T10:31:41.585Z,47.71
2023-01-23T10:34:45.106Z,47.74
2023-01-23T10:37:33.451Z,47.51
2023-01-23T10:40:25.184Z,48.12
2023-01-23T10:43:11.413Z,48.70
2023-01-23T10:46:00.050Z,48.43
2023-01-23T10:48:57.123Z,49.13
2023-01-23T10:51:46.042Z,49.69
2023-01-23T10:54:34.172Z,49.20
2023-01-23T10:57:29.135Z,51.00
2023-01-23T11:00:47.111Z,51.37
2023-01-23T11:03:29.373Z,52.37
2023-01-23T11:06:25.167Z,53.09
2023-01-23T11:09:08.380Z,52.99
2023-01-23T11:12:14.221Z,53.08
2023-01-23T11:14:56.449Z,53.85
2023-01-23T11:17:46.092Z,54.50
2023-01-23T11:20:35.424Z,54.18
2023-01-23T11:23:27.157Z,54.86
2023-01-23T11:26:16.099Z,55.66
2023-01-23T11:29:05.503Z,55.68
2023-01-23T11:31:50.276Z,57.39
2023-01-23T11:34:41.936Z,56.61
2023-01-23T11:37:53.208Z,57.00
2023-01-23T11:40:41.511Z,56.99
2023-01-23T11:43:25.092Z,56.96
2023-01-23T11:46:20.268Z,56.57
2023-01-23T11:49:14.354Z,56.92
2023-01-23T11:52:27.165Z,57.16
2023-01-23T11:55:34.692Z,57.31
2023-01-23T11:58:49.117Z,57.23
2023-01-23T12:02:03.506Z,57.33
2023-01-23T12:05:23.485Z,57.60
2023-01-23T12:08:44.142Z,58.20
2023-01-23T12:11:34.852Z,57.45
2023-01-23T12:14:27.110Z,56.63
2023-01-23T12:17:53.202Z,55.77
2023-01-23T12:20:54.126Z,53.49
2023-01-23T12:24:01.455Z,54.73
2023-01-23T12:27:08.078Z,55.04
2023-01-23T12:30:24.092Z,55.39
2023-01-23T12:33:30.977Z,55.91
2023-01-23T12:37:06.195Z,56.65
2023-01-23T12:40:00.542Z,57.25
2023-01-23T12:43:13.047Z,57.72
2023-01-23T12:46:06.867Z,57.93
2023-01-23T12:49:25.164Z,58.17
2023-01-23T12:52:30.229Z,58.41
2023-01-23T12:55:34.068Z,58.67
2023-01-23T12:58:25.863Z,59.05
2023-01-23T13:01:17.066Z,59.44
2023-01-23T13:04:28.170Z,58.84
2023-01-23T13:07:16.565Z,59.56
2023-01-23T13:10:55.116Z,59.25
2023-01-23T13:13:38.465Z,59.01
2023-01-23T13:16:29.117Z,59.77
2023-01-23T14:22:43.575Z,53.12
2023-01-23T14:25:26.901Z,52.71
2023-01-23T14:28:15.418Z,52.41
2023-01-23T14:31:01.930Z,52.85
2023-01-23T14:33:52.558Z,52.73
2023-01-23T14:36:44.540Z,52.96
2023-01-23T14:39:38.141Z,52.38
2023-01-23T14:42:41.409Z,52.21
2023-01-23T14:45:32.216Z,51.91
2023-01-23T14:48:23.070Z,51.70
2023-01-23T14:51:14.628Z,51.64
2023-01-23T14:54:02.997Z,52.17
2023-01-23T14:56:53.415Z,51.22
2023-01-23T14:59:46.814Z,51.82
2023-01-23T15:02:42.534Z,51.90
2023-01-23T15:05:27.729Z,51.96
2023-01-23T15:08:34.445Z,50.99
2023-01-23T15:11:24.459Z,51.23
2023-01-23T15:14:08.875Z,50.87
2023-01-23T15:16:59.472Z,51.63
2023-01-23T15:19:42.808Z,52.78
2023-01-23T15:22:34.503Z,52.43
2023-01-23T15:25:34.889Z,52.34
2023-01-23T15:28:52.448Z,52.66
2023-01-23T15:31:42.949Z,52.46
2023-01-23T15:34:24.496Z,52.69
2023-01-23T15:37:14.597Z,52.25
2023-01-23T15:40:08.939Z,52.23
2023-01-23T15:43:20.582Z,53.34
2023-01-23T15:46:02.896Z,52.97
2023-01-23T15:48:52.404Z,53.37
2023-01-23T15:51:34.934Z,52.79
2023-01-23T15:54:31.595Z,53.69
2023-01-23T15:57:14.982Z,53.56
2023-01-23T16:00:03.621Z,53.37
2023-01-23T16:02:55.636Z,53.90
2023-01-23T16:05:45.499Z,53.49
2023-01-23T16:08:36.503Z,53.93
2023-01-23T16:11:26.583Z,53.59
2023-01-23T16:14:09.941Z,52.71
2023-01-23T16:17:11.392Z,52.98
2023-01-23T16:20:11.607Z,53.83
2023-01-23T16:23:14.166Z,53.36
2023-01-23T16:25:57.646Z,52.65
2023-01-23T16:28:45.889Z,53.61
2023-01-23T16:31:28.671Z,53.46
2023-01-23T16:34:16.847Z,53.06
2023-01-23T16:37:01.550Z,53.58
2023-01-23T16:39:51.887Z,53.26
2023-01-23T16:42:36.561Z,54.20
2023-01-23T16:45:29.059Z,54.97
2023-01-23T16:48:21.676Z,54.86
2023-01-23T16:51:20.972Z,55.02
2023-01-23T16:54:18.757Z,55.74
2023-01-23T16:57:10.278Z,55.76
2023-01-23T16:59:53.591Z,55.75
2023-01-23T17:02:36.070Z,55.33
2023-01-23T17:05:24.678Z,55.51
2023-01-23T17:08:31.052Z,56.01
2023-01-23T17:11:13.558Z,56.64
2023-01-23T17:14:33.984Z,56.93
2023-01-23T17:17:33.562Z,56.90
2023-01-23T17:20:22.524Z,56.52
2023-01-23T17:23:04.966Z,57.20
2023-01-23T17:26:00.699Z,57.46
2023-01-23T17:28:43.942Z,56.86
2023-01-23T17:31:36.664Z,57.23
2023-01-23T17:34:30.007Z,57.37
2023-01-23T17:37:28.498Z,57.16
2023-01-23T17:40:18.475Z,57.48
2023-01-23T17:43:07.535Z,57.43
2023-01-23T17:45:53.011Z,57.74
2023-01-23T17:48:48.505Z,58.21
2023-01-23T17:51:32.971Z,57.74
2023-01-23T17:54:28.595Z,57.48
2023-01-23T17:57:18.581Z,57.55
2023-01-23T18:00:07.933Z,58.35
2023-01-23T18:02:51.518Z,58.92
2023-01-23T18:05:40.609Z,57.26
2023-01-23T18:08:25.074Z,56.88
2023-01-23T18:11:15.937Z,57.72
2023-01-23T18:14:31.566Z,58.55
2023-01-23T18:17:53.357Z,58.74
2023-01-23T18:20:43.464Z,59.01
2023-01-23T18:23:32.465Z,59.81
2023-01-23T18:26:17.594Z,59.41
2023-01-23T18:29:30.812Z,60.30
2023-01-23T18:32:34.535Z,59.86
2023-01-23T18:35:20.167Z,60.16
2023-01-23T18:38:31.765Z,59.27
2023-01-23T18:41:26.012Z,59.54
2023-01-23T18:44:34.577Z,60.63
2023-01-23T18:47:33.577Z,60.73
2023-01-23T18:50:23.694Z,61.08
2023-01-23T18:53:40.572Z,60.78
2023-01-23T18:56:35.206Z,60.92
2023-01-23T18:59:42.511Z,61.46
2023-01-23T19:02:57.988Z,61.49
2023-01-23T19:05:41.477Z,61.18
2023-01-23T19:08:37.932Z,61.08
2023-01-23T19:11:48.419Z,61.13
2023-01-23T19:14:50.981Z,61.78
2023-01-23T19:18:05.557Z,61.45
2023-01-23T19:21:00.907Z,60.98
2023-01-23T19:23:47.521Z,61.58
2023-01-23T19:26:43.049Z,61.58
2023-01-23T19:29:25.564Z,61.78
2023-01-23T19:32:15.918Z,61.50
2023-01-23T19:35:12.491Z,61.99
2023-01-23T19:38:02.972Z,62.29
2023-01-23T19:40:45.498Z,61.91
2023-01-23T19:43:34.932Z,62.03
2023-01-23T19:46:17.524Z,62.52
2023-01-23T19:49:02.847Z,62.25
2023-01-23T19:51:52.539Z,62.92
2023-01-23T19:54:40.814Z,63.09
2023-01-23T19:57:22.562Z,62.94
2023-01-23T20:00:05.175Z,62.88
2023-01-23T20:02:54.503Z,62.42
2023-01-23T20:05:36.785Z,62.36
2023-01-23T20:08:25.536Z,62.47
2023-01-23T20:11:07.757Z,62.13
2023-01-23T20:13:56.577Z,61.92
2023-01-23T20:16:44.861Z,61.74
2023-01-23T20:19:33.499Z,60.93
2023-01-23T20:22:16.069Z,61.59
2023-01-23T20:25:04.506Z,62.09
2023-01-23T20:27:47.740Z,61.42
2023-01-23T20:30:36.618Z,61.86
2023-01-23T20:33:25.543Z,61.11
2023-01-23T20:36:15.464Z,61.22
2023-01-23T20:38:57.947Z,62.27
2023-01-23T20:41:46.555Z,61.88
2023-01-23T20:44:28.786Z,61.67
2023-01-23T20:47:17.491Z,61.41
2023-01-23T20:49:59.940Z,61.31
2023-01-23T20:53:06.528Z,62.16
2023-01-23T20:55:55.488Z,61.91
2023-01-23T20:59:07.332Z,62.06
2023-01-23T21:02:09.536Z,61.95
2023-01-23T21:05:00.487Z,62.16
2023-01-23T21:07:49.494Z,61.94
2023-01-23T21:10:31.676Z,62.27
2023-01-23T21:13:23.469Z,62.58
2023-01-23T21:16:19.617Z,63.06
2023-01-23T21:19:08.753Z,62.04
2023-01-23T21:21:51.399Z,62.71
2023-01-23T21:24:41.746Z,62.44
2023-01-23T21:27:26.555Z,62.83
2023-01-23T21:30:15.808Z,62.43
2023-01-23T21:32:57.523Z,62.65
2023-01-23T21:35:39.948Z,62.39
2023-01-23T21:38:28.467Z,61.93
2023-01-23T21:41:10.895Z,61.96
2023-01-23T21:43:59.471Z,62.47
2023-01-23T21:46:48.442Z,62.56
2023-01-23T21:49:32.356Z,61.76
2023-01-23T21:52:21.473Z,62.85
2023-01-23T21:55:03.771Z,61.93
2023-01-23T21:57:52.580Z,62.53
2023-01-23T22:01:06.933Z,62.80
2023-01-23T22:03:55.486Z,62.50
2023-01-23T22:06:45.513Z,61.97
2023-01-23T22:09:27.944Z,62.41
2023-01-23T22:12:16.473Z,61.85
2023-01-23T22:14:58.627Z,62.26
2023-01-23T22:17:47.513Z,62.25
2023-01-23T22:20:35.820Z,62.33
2023-01-23T22:23:18.490Z,62.83
2023-01-23T22:26:04.291Z,62.38
2023-01-23T22:28:53.433Z,63.10
2023-01-23T22:31:49.573Z,62.15
2023-01-23T22:34:31.650Z,63.58
2023-01-23T22:37:22.127Z,62.78
2023-01-23T22:40:11.486Z,62.89
2023-01-23T22:42:53.763Z,63.56
2023-01-23T22:45:42.540Z,62.82
2023-01-23T22:48:24.862Z,62.97
2023-01-23T22:51:17.455Z,62.90
2023-01-23T22:54:07.432Z,62.50
2023-01-23T22:56:55.772Z,63.32
2023-01-23T22:59:37.522Z,63.04
2023-01-23T23:02:26.444Z,62.36
2023-01-23T23:05:08.794Z,63.65
2023-01-23T23:07:57.527Z,63.56
2023-01-23T23:10:39.764Z,64.38
2023-01-23T23:13:28.468Z,63.84
2023-01-23T23:16:23.444Z,64.44
2023-01-23T23:19:19.513Z,63.41
2023-01-23T23:22:08.521Z,64.12
2023-01-23T23:24:50.783Z,64.10
2023-01-23T23:27:39.463Z,63.80
2023-01-23T23:30:21.764Z,64.25
2023-01-23T23:33:10.423Z,63.92
2023-01-23T23:35:53.727Z,64.11
2023-01-23T23:38:42.483Z,64.23
2023-01-23T23:41:31.412Z,64.73
2023-01-23T23:44:20.495Z,63.91
2023-01-23T23:47:02.727Z,64.07
2023-01-23T23:49:51.438Z,63.49
2023-01-23T23:52:36.004Z,64.07
2023-01-23T23:55:25.388Z,64.44
2023-01-23T23:58:14.485Z,64.11
